Time;durP1;ratioP1;P1;durP2;ratioP2;P2;SDS_P1;SDS_P2;PMS_P1;PMS_P2;Temp;Humidity;BMP_temperature;BMP_pressure;BME280_temperature;BME280_humidity;BME280_pressure;Samples;Min_cycle;Max_cycle;Signal;HPM_P1;HPM_P2
2022/08/17 00:00:46;;;;;;;135.80;128.00;;;17.80;99.90;;;;;;5027692;28;20187;-75
2022/08/17 00:03:19;;;;;;;129.00;121.90;;;17.80;99.90;;;;;;5011435;28;20573;-75
2022/08/17 00:06:02;;;;;;;170.87;161.43;;;17.70;99.90;;;;;;5012654;28;20692;-75
2022/08/17 00:08:32;;;;;;;223.63;211.30;;;17.70;99.90;;;;;;5011977;28;20241;-75
2022/08/17 00:10:59;;;;;;;303.73;287.07;;;17.60;99.90;;;;;;5018338;28;20221;-76
2022/08/17 00:13:32;;;;;;;336.70;318.30;;;17.60;99.90;;;;;;5013082;28;20186;-75
2022/08/17 00:16:04;;;;;;;349.30;330.13;;;17.70;99.90;;;;;;5011487;28;20222;-75
2022/08/17 00:18:31;;;;;;;381.47;360.17;;;17.60;99.90;;;;;;5011255;28;20683;-75
2022/08/17 00:20:59;;;;;;;422.73;399.03;;;17.60;99.90;;;;;;5017225;28;20580;-76
2022/08/17 00:23:25;;;;;;;353.63;333.37;;;17.60;99.90;;;;;;5031544;28;20663;-75
2022/08/17 00:25:53;;;;;;;398.97;376.07;;;17.50;99.90;;;;;;5031852;28;20632;-76
2022/08/17 00:28:19;;;;;;;358.07;337.27;;;17.50;99.90;;;;;;5031010;28;20175;-75
2022/08/17 00:30:47;;;;;;;398.10;375.00;;;17.40;99.90;;;;;;5027206;28;20556;-75
2022/08/17 00:33:21;;;;;;;424.80;400.00;;;17.30;99.90;;;;;;5012176;28;20187;-75
2022/08/17 00:35:47;;;;;;;393.30;371.10;;;17.30;99.90;;;;;;5011991;28;20298;-75
2022/08/17 00:38:13;;;;;;;395.83;373.67;;;17.30;99.90;;;;;;5011270;28;20205;-76
2022/08/17 00:40:45;;;;;;;413.03;390.13;;;17.30;99.90;;;;;;5010633;28;20211;-75
2022/08/17 00:43:21;;;;;;;413.60;390.60;;;17.40;99.90;;;;;;5011631;28;20188;-75
2022/08/17 00:45:48;;;;;;;390.10;369.07;;;17.40;99.90;;;;;;5010681;28;20742;-75
2022/08/17 00:48:14;;;;;;;454.97;428.47;;;17.40;99.90;;;;;;5011046;28;20171;-75
2022/08/17 00:50:48;;;;;;;436.10;411.47;;;17.30;99.90;;;;;;5015451;28;20273;-76
2022/08/17 00:53:15;;;;;;;390.57;369.17;;;17.10;99.90;;;;;;5031581;28;20665;-75
2022/08/17 00:55:40;;;;;;;268.43;254.73;;;17.00;99.90;;;;;;5030320;28;20226;-75
2022/08/17 00:58:06;;;;;;;172.40;163.40;;;16.80;99.90;;;;;;5030723;28;20210;-75
2022/08/17 01:00:37;;;;;;;245.47;231.43;;;16.70;99.90;;;;;;5029332;28;20253;-74
2022/08/17 01:03:11;;;;;;;263.83;249.00;;;16.60;99.90;;;;;;5012185;28;20726;-75
2022/08/17 01:05:39;;;;;;;262.43;247.27;;;16.70;99.90;;;;;;5010729;28;20209;-75
2022/08/17 01:08:14;;;;;;;329.00;309.63;;;16.70;99.90;;;;;;5010810;28;20603;-75
2022/08/17 01:10:43;;;;;;;293.23;275.70;;;16.80;99.90;;;;;;5012477;28;20193;-75
2022/08/17 01:13:11;;;;;;;490.33;459.83;;;17.00;99.90;;;;;;5031022;28;20531;-75
2022/08/17 01:15:41;;;;;;;457.70;429.27;;;17.10;99.90;;;;;;5031067;28;20221;-75
2022/08/17 01:18:10;;;;;;;297.77;280.60;;;17.10;99.90;;;;;;5030522;28;20189;-75
2022/08/17 01:20:45;;;;;;;247.63;232.53;;;17.00;99.90;;;;;;5029434;28;20206;-75
2022/08/17 01:23:12;;;;;;;254.73;239.20;;;16.90;99.90;;;;;;5011351;28;20743;-75
2022/08/17 01:25:40;;;;;;;165.40;156.17;;;17.00;99.90;;;;;;5010319;28;20290;-75
2022/08/17 01:28:06;;;;;;;239.73;225.77;;;16.90;99.90;;;;;;5009208;28;20175;-75
2022/08/17 01:30:32;;;;;;;81.33;76.87;;;16.90;99.90;;;;;;5011907;28;20675;-75
2022/08/17 01:32:58;;;;;;;196.37;185.00;;;16.90;99.90;;;;;;5031008;28;20186;-75
2022/08/17 01:35:24;;;;;;;97.90;92.13;;;16.90;99.90;;;;;;5031879;28;20205;-75
2022/08/17 01:37:50;;;;;;;101.37;95.43;;;16.80;99.90;;;;;;5034482;28;20551;-75
2022/08/17 01:40:37;;;;;;;98.53;92.97;;;16.70;99.90;;;;;;5034995;28;20210;-75
2022/08/17 01:43:18;;;;;;;134.87;127.10;;;16.70;99.90;;;;;;5029612;28;20178;-75
2022/08/17 01:45:48;;;;;;;294.57;276.53;;;16.60;99.90;;;;;;5035033;28;20210;-75
2022/08/17 01:48:14;;;;;;;410.33;384.33;;;16.60;99.90;;;;;;5034091;28;20658;-76
2022/08/17 01:50:42;;;;;;;504.83;473.30;;;16.60;99.90;;;;;;5032296;28;20179;-75
2022/08/17 01:53:32;;;;;;;472.00;441.93;;;16.50;99.90;;;;;;5013712;28;20191;-75
2022/08/17 01:56:04;;;;;;;453.57;425.27;;;16.60;99.90;;;;;;4995169;28;20208;-75
2022/08/17 01:58:32;;;;;;;470.83;442.07;;;16.50;99.90;;;;;;4994253;28;20622;-75
2022/08/17 02:00:58;;;;;;;399.17;375.23;;;16.40;99.90;;;;;;5001860;28;20205;-74
2022/08/17 02:03:24;;;;;;;318.30;299.67;;;16.30;99.90;;;;;;5034493;28;20715;-74
2022/08/17 02:05:52;;;;;;;271.20;255.30;;;16.20;99.90;;;;;;5034645;28;20318;-75
2022/08/17 02:08:19;;;;;;;192.37;181.17;;;16.20;99.90;;;;;;5034002;28;20183;-74
2022/08/17 02:10:46;;;;;;;132.53;124.60;;;16.20;99.90;;;;;;5033024;28;20309;-74
2022/08/17 02:13:12;;;;;;;98.57;93.23;;;16.30;99.90;;;;;;5014369;28;20190;-75
2022/08/17 02:15:40;;;;;;;94.30;88.87;;;16.30;99.90;;;;;;5014070;28;20219;-74
2022/08/17 02:18:07;;;;;;;95.07;89.47;;;16.40;99.90;;;;;;5012261;28;20698;-74
2022/08/17 02:20:34;;;;;;;196.37;185.73;;;16.40;99.90;;;;;;5013128;28;20248;-75
2022/08/17 02:23:01;;;;;;;164.67;155.47;;;16.40;99.90;;;;;;5033140;28;20215;-74
2022/08/17 02:25:30;;;;;;;143.33;135.13;;;16.40;99.90;;;;;;5032891;28;20202;-74
2022/08/17 02:27:55;;;;;;;137.87;130.07;;;16.40;99.90;;;;;;5031961;28;20554;-74
2022/08/17 02:30:21;;;;;;;227.87;215.20;;;16.40;99.90;;;;;;5033920;28;20182;-74
2022/08/17 02:32:47;;;;;;;198.23;187.30;;;16.40;99.90;;;;;;5018772;28;20598;-74
2022/08/17 02:35:13;;;;;;;291.77;275.53;;;16.40;99.90;;;;;;5014534;28;20249;-75
2022/08/17 02:37:42;;;;;;;275.57;260.33;;;16.30;99.90;;;;;;5012471;28;20660;-75
2022/08/17 02:40:09;;;;;;;305.87;289.23;;;16.20;99.90;;;;;;5013969;28;20216;-74
2022/08/17 02:42:38;;;;;;;278.30;263.07;;;16.20;99.90;;;;;;5026328;28;20663;-74
2022/08/17 02:45:09;;;;;;;137.00;129.43;;;16.20;99.90;;;;;;5033485;28;20229;-74
2022/08/17 02:47:36;;;;;;;208.20;196.70;;;16.20;99.90;;;;;;5032934;28;20182;-75
2022/08/17 02:50:04;;;;;;;149.37;141.13;;;16.20;99.90;;;;;;5033617;28;20279;-74
2022/08/17 02:52:36;;;;;;;151.23;143.33;;;16.30;99.90;;;;;;5032043;28;20179;-75
2022/08/17 02:55:08;;;;;;;169.93;160.70;;;16.30;99.90;;;;;;5015024;28;20199;-75
2022/08/17 02:57:35;;;;;;;261.87;247.60;;;16.30;99.90;;;;;;5011883;28;20271;-74
2022/08/17 03:00:04;;;;;;;205.43;194.33;;;16.20;99.90;;;;;;5013749;28;20242;-74
2022/08/17 03:02:29;;;;;;;296.50;280.03;;;16.10;99.90;;;;;;5012442;28;20714;-75
2022/08/17 03:04:55;;;;;;;240.67;227.40;;;16.10;99.90;;;;;;5011966;28;20291;-75
2022/08/17 03:07:21;;;;;;;172.83;163.33;;;16.10;99.90;;;;;;5017094;28;20201;-75
2022/08/17 03:09:47;;;;;;;161.67;153.07;;;16.00;99.90;;;;;;5018848;28;20662;-75
2022/08/17 03:12:13;;;;;;;101.17;95.53;;;16.10;99.90;;;;;;5031367;28;20712;-75
2022/08/17 03:14:41;;;;;;;67.63;63.63;;;16.00;99.90;;;;;;5032942;28;20221;-75
2022/08/17 03:17:08;;;;;;;67.53;63.27;;;16.10;99.90;;;;;;5036323;23;20238;-77
2022/08/17 03:19:34;;;;;;;61.03;57.50;;;16.10;99.90;;;;;;5013747;28;20214;-77
2022/08/17 03:22:04;;;;;;;58.10;54.77;;;16.00;99.90;;;;;;5013313;28;20252;-77
2022/08/17 03:24:30;;;;;;;66.17;62.33;;;16.00;99.90;;;;;;5023450;28;20285;-76
2022/08/17 03:26:56;;;;;;;62.97;59.17;;;16.00;99.90;;;;;;5022059;28;20212;-76
2022/08/17 03:29:22;;;;;;;49.87;46.67;;;15.90;99.90;;;;;;5013195;28;20258;-76
2022/08/17 03:31:48;;;;;;;31.93;29.90;;;15.90;99.90;;;;;;5012081;28;20182;-78
2022/08/17 03:34:15;;;;;;;25.13;22.90;;;15.90;99.90;;;;;;5007741;28;20224;-76
2022/08/17 03:36:41;;;;;;;26.70;24.80;;;15.90;99.90;;;;;;5012547;28;20732;-77
2022/08/17 03:39:07;;;;;;;23.83;22.37;;;15.90;99.90;;;;;;5011834;28;20226;-77
2022/08/17 03:41:33;;;;;;;21.03;19.63;;;15.90;99.90;;;;;;5011479;28;20467;-77
2022/08/17 03:43:59;;;;;;;25.53;23.87;;;15.90;99.90;;;;;;5013113;28;20190;-76
2022/08/17 03:57:28;;;;;;;40.33;37.77;;;15.80;99.90;;;;;;4985268;28;20239;-76
2022/08/17 03:59:54;;;;;;;29.87;28.03;;;15.90;99.90;;;;;;4992765;28;20250;-77
2022/08/17 04:02:32;;;;;;;30.30;28.13;;;15.80;99.90;;;;;;4991618;28;20182;-76
2022/08/17 04:04:58;;;;;;;24.87;23.07;;;15.80;99.90;;;;;;4990999;28;20234;-77
2022/08/17 04:07:27;;;;;;;17.40;15.90;;;15.70;99.90;;;;;;4990854;28;20291;-76
2022/08/17 04:09:53;;;;;;;29.60;27.90;;;15.70;99.90;;;;;;4991724;28;20185;-76
2022/08/17 04:12:21;;;;;;;22.57;21.10;;;15.60;99.90;;;;;;4990957;28;20176;-76
2022/08/17 04:14:48;;;;;;;29.57;27.77;;;15.50;99.90;;;;;;4991711;28;20184;-77
2022/08/17 04:17:14;;;;;;;31.77;29.83;;;15.50;99.90;;;;;;4990382;28;20248;-76
2022/08/17 04:19:40;;;;;;;29.57;27.33;;;15.50;99.90;;;;;;4991766;28;20259;-77
2022/08/17 04:22:05;;;;;;;32.50;30.30;;;15.50;99.90;;;;;;4992348;28;20173;-76
2022/08/17 04:24:32;;;;;;;33.93;31.90;;;15.40;99.90;;;;;;4992572;28;20183;-76
2022/08/17 04:26:58;;;;;;;19.87;18.47;;;15.40;99.90;;;;;;4991143;28;20204;-76
2022/08/17 04:29:24;;;;;;;20.50;19.13;;;15.40;99.90;;;;;;4993385;28;20185;-76
2022/08/17 04:31:52;;;;;;;20.30;18.67;;;15.50;99.90;;;;;;4994975;28;20250;-76
2022/08/17 04:34:18;;;;;;;20.87;19.37;;;15.40;99.90;;;;;;4991235;28;20241;-77
2022/08/17 04:36:44;;;;;;;21.10;19.60;;;15.40;99.90;;;;;;4990420;28;20200;-77
2022/08/17 04:39:10;;;;;;;26.47;24.77;;;15.50;99.90;;;;;;4993428;28;20219;-78
2022/08/17 04:44:20;;;;;;;19.37;17.97;;;15.40;99.90;;;;;;4992449;28;20562;-77
2022/08/17 04:46:46;;;;;;;22.03;20.40;;;15.50;99.90;;;;;;4990269;28;20259;-77
2022/08/17 04:49:13;;;;;;;16.87;15.57;;;15.40;99.90;;;;;;4991050;28;20188;-76
2022/08/17 04:51:45;;;;;;;26.27;24.53;;;15.40;99.90;;;;;;4992208;28;20184;-76
2022/08/17 04:54:17;;;;;;;30.20;28.30;;;15.30;99.90;;;;;;4992201;28;20653;-77
2022/08/17 04:56:43;;;;;;;32.03;30.13;;;15.30;99.90;;;;;;4990384;28;20208;-76
2022/08/17 04:59:15;;;;;;;31.47;29.53;;;15.30;99.90;;;;;;4991690;28;20316;-76
2022/08/17 05:01:45;;;;;;;35.37;32.80;;;15.40;99.90;;;;;;4990782;28;20184;-77
2022/08/17 05:04:18;;;;;;;34.23;32.03;;;15.40;99.90;;;;;;4990349;28;20279;-76
2022/08/17 05:06:45;;;;;;;36.23;34.13;;;15.50;99.90;;;;;;4996141;28;20207;-76
2022/08/17 05:09:11;;;;;;;33.83;31.73;;;15.50;99.90;;;;;;5009838;28;20184;-76
2022/08/17 05:11:38;;;;;;;28.77;26.97;;;15.60;99.90;;;;;;4996421;28;20204;-76
2022/08/17 05:14:04;;;;;;;21.90;20.50;;;15.70;99.90;;;;;;4991320;28;20207;-77
2022/08/17 05:16:30;;;;;;;19.43;17.93;;;15.90;99.90;;;;;;4990935;28;20212;-76
2022/08/17 05:18:58;;;;;;;22.40;20.90;;;16.20;99.90;;;;;;4990882;28;20327;-76
2022/08/17 05:21:24;;;;;;;14.50;13.10;;;16.50;99.90;;;;;;4991739;28;20181;-76
2022/08/17 05:23:50;;;;;;;21.67;19.40;;;16.80;99.90;;;;;;4990721;28;20172;-76
2022/08/17 05:26:19;;;;;;;15.80;13.93;;;17.20;99.90;;;;;;4991761;28;20748;-76
2022/08/17 05:28:45;;;;;;;21.93;20.33;;;17.80;99.90;;;;;;4993446;28;20183;-77
2022/08/17 05:31:12;;;;;;;113.73;108.07;;;18.10;99.90;;;;;;4995125;28;20188;-77
2022/08/17 05:33:40;;;;;;;67.07;63.30;;;18.20;99.90;;;;;;4996552;28;20211;-78
2022/08/17 05:36:08;;;;;;;47.40;44.53;;;18.10;99.90;;;;;;4995483;28;20223;-77
2022/08/17 05:38:34;;;;;;;24.53;22.57;;;18.10;99.90;;;;;;4995778;28;20184;-77
2022/08/17 05:41:02;;;;;;;12.63;11.63;;;18.00;99.90;;;;;;4996708;28;20180;-77
2022/08/17 05:43:31;;;;;;;14.17;12.87;;;18.00;99.90;;;;;;4995756;28;20539;-77
2022/08/17 05:46:18;;;;;;;20.60;19.00;;;18.20;99.90;;;;;;4996509;28;20244;-77
2022/08/17 05:48:48;;;;;;;39.07;36.70;;;18.70;99.90;;;;;;4997068;28;20177;-78
2022/08/17 05:51:14;;;;;;;26.47;24.77;;;19.40;99.90;;;;;;4996257;28;20619;-77
2022/08/17 05:54:04;;;;;;;11.90;11.20;;;20.10;99.90;;;;;;4998055;28;20172;-77
2022/08/17 05:56:50;;;;;;;24.25;22.92;;;20.50;99.90;;;;;;4997042;28;20210;-77
2022/08/17 05:59:53;;;;;;;30.38;28.73;;;20.40;99.90;;;;;;4995435;28;20211;-77
2022/08/17 06:02:40;;;;;;;25.55;24.05;;;20.20;99.90;;;;;;4998347;28;20247;-76
2022/08/17 06:05:13;;;;;;;18.73;17.63;;;20.30;99.90;;;;;;5000500;28;20185;-77
2022/08/17 06:07:44;;;;;;;22.90;21.23;;;20.30;99.90;;;;;;4996102;28;20543;-78
2022/08/17 06:10:46;;;;;;;20.08;18.55;;;20.40;99.90;;;;;;4993814;28;20730;-78
2022/08/17 06:13:45;;;;;;;128.05;121.65;;;20.70;99.90;;;;;;5005346;28;20188;-76
2022/08/17 06:16:21;;;;;;;63.33;59.80;;;21.70;99.90;;;;;;4995356;28;20219;-78
2022/08/17 06:19:03;;;;;;;65.25;61.78;;;22.60;99.90;;;;;;4994386;28;20238;-77
2022/08/17 06:21:34;;;;;;;28.35;26.75;;;23.00;99.90;;;;;;4999188;28;20184;-77
2022/08/17 06:24:22;;;;;;;14.07;13.02;;;23.00;99.90;;;;;;4998949;28;20184;-77
2022/08/17 06:26:49;;;;;;;12.88;12.07;;;23.30;99.90;;;;;;5000436;28;20211;-77
2022/08/17 06:29:34;;;;;;;35.47;33.40;;;23.80;99.90;;;;;;5000704;28;20610;-77
2022/08/17 06:32:01;;;;;;;30.80;28.88;;;24.10;99.90;;;;;;4998970;28;20184;-77
2022/08/17 06:34:28;;;;;;;19.08;18.02;;;24.80;99.90;;;;;;5001969;28;20565;-77
2022/08/17 06:37:26;;;;;;;18.60;17.30;;;24.70;99.90;;;;;;5004075;28;20204;-77
2022/08/17 06:40:18;;;;;;;40.28;37.92;;;24.50;99.90;;;;;;4998659;28;20228;-77
2022/08/17 06:43:10;;;;;;;45.38;42.78;;;24.00;99.90;;;;;;5001408;28;20181;-77
2022/08/17 06:45:56;;;;;;;35.80;33.83;;;24.00;99.90;;;;;;4999734;28;20464;-77
2022/08/17 06:48:36;;;;;;;14.20;13.23;;;24.50;99.90;;;;;;4999940;28;20184;-77
2022/08/17 06:51:26;;;;;;;8.93;8.32;;;24.90;99.90;;;;;;4997197;28;20176;-76
2022/08/17 06:54:25;;;;;;;10.75;10.10;;;25.20;99.90;;;;;;4998131;28;20252;-77
2022/08/17 06:57:03;;;;;;;13.93;13.07;;;25.50;99.90;;;;;;4996132;28;20295;-77
2022/08/17 06:59:48;;;;;;;12.40;11.65;;;26.20;99.90;;;;;;4996078;28;20227;-77
2022/08/17 07:02:30;;;;;;;11.98;11.27;;;26.70;99.90;;;;;;4997814;28;20725;-77
2022/08/17 07:05:00;;;;;;;14.90;13.90;;;26.80;99.90;;;;;;4998070;28;20188;-76
2022/08/17 07:10:11;;;;;;;10.65;9.57;;;27.10;99.90;;;;;;5001982;28;20576;-77
2022/08/17 07:12:41;;;;;;;8.63;8.02;;;27.50;99.90;;;;;;4999275;28;20279;-77
2022/08/17 07:15:18;;;;;;;8.27;7.60;;;27.30;99.90;;;;;;4999084;28;20566;-77
2022/08/17 07:17:46;;;;;;;9.55;8.95;;;26.70;99.90;;;;;;4999696;28;20259;-77
2022/08/17 07:20:19;;;;;;;12.13;11.25;;;26.40;99.90;;;;;;4997598;28;20263;-77
2022/08/17 07:23:00;;;;;;;11.18;10.25;;;26.20;99.90;;;;;;4998592;28;20223;-77
2022/08/17 07:25:27;;;;;;;13.65;11.77;;;26.30;99.90;;;;;;4998486;28;20662;-77
2022/08/17 07:27:59;;;;;;;14.07;13.18;;;26.50;99.90;;;;;;4997254;28;20172;-79
2022/08/17 07:30:32;;;;;;;11.95;10.93;;;26.80;99.90;;;;;;4998260;28;20184;-76
2022/08/17 07:33:11;;;;;;;11.45;10.38;;;27.30;99.90;;;;;;4998686;28;20184;-75
2022/08/17 07:35:39;;;;;;;9.20;8.40;;;27.60;99.90;;;;;;5000541;28;20216;-76
2022/08/17 07:38:23;;;;;;;8.80;8.15;;;28.20;99.50;;;;;;5000339;28;20200;-76
2022/08/17 07:41:01;;;;;;;16.73;15.43;;;28.40;98.90;;;;;;5000191;28;20208;-77
2022/08/17 07:43:50;;;;;;;29.98;28.13;;;28.30;98.30;;;;;;4998623;28;20184;-77
2022/08/17 07:49:21;;;;;;;28.08;26.38;;;28.60;96.70;;;;;;5008113;28;20236;-77
2022/08/17 07:51:49;;;;;;;14.82;13.68;;;29.10;95.90;;;;;;4999248;28;20270;-77
2022/08/17 07:54:15;;;;;;;10.48;9.50;;;29.60;94.50;;;;;;4994118;28;20193;-78
2022/08/17 07:57:02;;;;;;;7.63;7.00;;;29.90;93.40;;;;;;4994431;28;20633;-77
2022/08/17 07:59:32;;;;;;;6.78;6.28;;;29.90;91.60;;;;;;4994938;28;20583;-78
2022/08/17 08:02:02;;;;;;;9.35;8.70;;;29.50;90.60;;;;;;5006366;28;20315;-78
2022/08/17 08:04:35;;;;;;;11.55;10.70;;;29.10;92.10;;;;;;4995222;28;20533;-77
2022/08/17 08:07:06;;;;;;;12.68;11.55;;;29.10;91.80;;;;;;4996686;28;20207;-78
2022/08/17 08:09:34;;;;;;;9.45;8.65;;;29.30;91.40;;;;;;4994732;28;20235;-77
2022/08/17 08:12:23;;;;;;;8.20;6.90;;;29.70;90.90;;;;;;4995448;28;20708;-78
2022/08/17 08:15:06;;;;;;;9.45;8.77;;;30.50;88.50;;;;;;4995080;28;20239;-77
2022/08/17 08:17:44;;;;;;;9.85;9.30;;;30.90;85.10;;;;;;4993155;28;20196;-77
2022/08/17 08:20:12;;;;;;;9.52;8.70;;;30.60;83.40;;;;;;4994280;28;20212;-76
2022/08/17 08:23:09;;;;;;;8.43;7.93;;;30.10;85.40;;;;;;5001033;28;20184;-77
2022/08/17 08:25:58;;;;;;;9.93;9.10;;;29.90;84.50;;;;;;4995779;28;20611;-77
2022/08/17 08:29:00;;;;;;;9.55;8.77;;;29.40;84.50;;;;;;4995308;28;20194;-77
2022/08/17 08:31:40;;;;;;;19.23;17.75;;;28.80;90.30;;;;;;4993575;28;20184;-77
2022/08/17 08:34:23;;;;;;;15.93;14.68;;;28.30;90.30;;;;;;4993487;28;20191;-77
2022/08/17 08:37:29;;;;;;;13.25;12.50;;;28.10;92.30;;;;;;4994157;28;20215;-77
2022/08/17 08:40:06;;;;;;;14.98;13.70;;;27.80;91.90;;;;;;4993644;28;20208;-77
2022/08/17 08:42:48;;;;;;;15.82;15.02;;;27.70;91.80;;;;;;4994546;28;20190;-77
2022/08/17 08:45:25;;;;;;;17.63;16.45;;;28.00;91.80;;;;;;4993435;28;20610;-77
2022/08/17 08:48:28;;;;;;;17.33;16.05;;;28.40;91.40;;;;;;4993030;28;20274;-77
2022/08/17 08:51:20;;;;;;;13.13;12.23;;;28.40;91.70;;;;;;4992915;28;20188;-78
2022/08/17 08:54:40;;;;;;;12.27;11.05;;;28.70;90.80;;;;;;4997502;28;20821;-77
2022/08/17 08:57:20;;;;;;;11.20;10.52;;;29.30;90.30;;;;;;4937728;29;20197;-77
2022/08/17 09:00:05;;;;;;;18.58;17.35;;;29.50;90.10;;;;;;4993492;28;20447;-78
2022/08/17 09:03:05;;;;;;;27.15;25.15;;;29.50;87.70;;;;;;4993840;28;20191;-78
2022/08/17 09:05:54;;;;;;;13.68;12.52;;;29.90;87.20;;;;;;4994065;28;20200;-78
2022/08/17 09:08:39;;;;;;;15.85;14.95;;;29.50;87.70;;;;;;4992019;28;20541;-77
2022/08/17 09:11:23;;;;;;;22.60;21.02;;;29.20;88.50;;;;;;4992895;28;20180;-78
2022/08/17 09:14:16;;;;;;;17.65;16.65;;;28.90;89.20;;;;;;4993750;28;20191;-78
2022/08/17 09:17:03;;;;;;;12.10;11.23;;;28.40;90.80;;;;;;5043543;23;20246;-79
2022/08/17 09:19:45;;;;;;;14.73;13.68;;;28.20;92.10;;;;;;5036982;28;20310;-79
2022/08/17 09:22:25;;;;;;;14.82;13.93;;;27.70;91.90;;;;;;5052663;28;20174;-80
2022/08/17 09:25:19;;;;;;;14.88;13.88;;;27.30;91.60;;;;;;5052791;28;20182;-79
2022/08/17 09:27:58;;;;;;;15.55;14.40;;;27.10;91.90;;;;;;5051883;28;20203;-79
2022/08/17 09:30:28;;;;;;;12.10;11.18;;;27.00;92.20;;;;;;5050089;28;20244;-81
2022/08/17 09:33:03;;;;;;;10.82;10.13;;;27.00;92.90;;;;;;5047190;28;20736;-80
2022/08/17 09:35:42;;;;;;;10.65;9.95;;;27.00;92.70;;;;;;5044511;28;20190;-81
2022/08/17 09:38:40;;;;;;;10.35;9.63;;;26.90;92.50;;;;;;5044586;28;20182;-81
2022/08/17 09:41:25;;;;;;;7.65;6.97;;;26.70;92.40;;;;;;5043535;28;20194;-81
2022/08/17 09:44:27;;;;;;;7.47;6.50;;;26.60;93.20;;;;;;5045177;28;20560;-81
2022/08/17 09:47:16;;;;;;;6.95;6.47;;;26.60;93.90;;;;;;5025475;28;20301;-80
2022/08/17 09:49:48;;;;;;;6.63;6.20;;;26.50;93.00;;;;;;5045379;28;20186;-80
2022/08/17 09:52:21;;;;;;;6.53;6.10;;;26.40;92.70;;;;;;5046508;28;20179;-80
2022/08/17 09:54:52;;;;;;;7.28;6.68;;;26.40;92.80;;;;;;5047247;28;20187;-82
2022/08/17 09:57:37;;;;;;;10.88;6.57;;;26.60;93.00;;;;;;5048782;28;20298;-81
2022/08/17 10:03:03;;;;;;;9.80;8.98;;;27.60;90.70;;;;;;5049511;28;20225;-82
2022/08/17 10:06:01;;;;;;;14.75;13.95;;;28.60;90.50;;;;;;5046993;28;20705;-82
2022/08/17 10:09:11;;;;;;;12.57;11.60;;;28.80;88.20;;;;;;5045837;28;20222;-81
2022/08/17 10:15:05;;;;;;;12.23;11.30;;;28.90;87.50;;;;;;5045943;28;20197;-82
2022/08/17 10:17:38;;;;;;;13.93;13.13;;;28.90;88.50;;;;;;5043847;28;20650;-81
2022/08/17 10:20:13;;;;;;;15.50;14.63;;;28.80;87.80;;;;;;5044587;28;20623;-82
2022/08/17 10:26:12;;;;;;;13.60;12.23;;;27.90;90.10;;;;;;5043127;28;20548;-81
2022/08/17 10:28:42;;;;;;;15.25;14.05;;;27.60;90.20;;;;;;5041067;28;20187;-81
2022/08/17 10:31:16;;;;;;;19.40;17.73;;;27.40;90.80;;;;;;5047068;28;20321;-82
2022/08/17 10:33:52;;;;;;;7.90;7.25;;;27.10;92.70;;;;;;5045358;28;20190;-82
2022/08/17 10:37:04;;;;;;;7.72;7.10;;;26.70;94.20;;;;;;5045824;28;20207;-82
2022/08/17 10:39:56;;;;;;;9.23;7.43;;;26.50;94.90;;;;;;5011286;28;20233;-81
2022/08/17 10:42:34;;;;;;;9.60;6.88;;;26.40;94.70;;;;;;5047822;28;20190;-82
2022/08/17 10:45:20;;;;;;;6.45;5.97;;;26.40;94.00;;;;;;5047191;28;20667;-81
2022/08/17 10:47:58;;;;;;;7.05;6.63;;;26.30;93.40;;;;;;5046015;28;20199;-82
2022/08/17 10:50:46;;;;;;;7.40;6.90;;;26.50;93.80;;;;;;5045014;28;20269;-80
2022/08/17 10:53:31;;;;;;;7.00;6.40;;;26.60;93.60;;;;;;5046178;28;20190;-81
2022/08/17 10:56:12;;;;;;;6.45;6.15;;;26.60;93.30;;;;;;5049653;28;20215;-80
2022/08/17 10:58:44;;;;;;;8.52;6.55;;;26.40;93.40;;;;;;5054739;28;20193;-80
2022/08/17 11:01:11;;;;;;;7.40;6.72;;;26.20;93.70;;;;;;5051947;28;20289;-82
2022/08/17 11:03:53;;;;;;;8.88;8.18;;;26.00;94.50;;;;;;5048498;28;20197;-81
2022/08/17 11:06:34;;;;;;;11.52;10.75;;;26.00;97.00;;;;;;5051305;28;20240;-80
2022/08/17 11:09:18;;;;;;;21.10;19.58;;;26.00;99.00;;;;;;5051705;28;20198;-80
2022/08/17 11:12:14;;;;;;;22.63;21.17;;;26.00;99.60;;;;;;5052733;28;20186;-81
2022/08/17 11:14:43;;;;;;;9.43;8.80;;;26.00;99.90;;;;;;5048607;28;20755;-80
2022/08/17 11:17:30;;;;;;;9.68;8.88;;;26.00;97.60;;;;;;5047164;28;20773;-81
2022/08/17 11:20:18;;;;;;;10.70;9.55;;;26.20;97.30;;;;;;5046020;28;20274;-82
2022/08/17 11:23:06;;;;;;;7.32;6.82;;;26.50;96.60;;;;;;5045631;28;20186;-81
2022/08/17 11:25:40;;;;;;;9.73;8.90;;;26.80;95.50;;;;;;5045926;28;20659;-82
2022/08/17 11:28:25;;;;;;;28.90;27.25;;;26.80;98.40;;;;;;5043355;28;20183;-82
2022/08/17 11:30:55;;;;;;;19.13;17.90;;;26.60;99.90;;;;;;5043398;28;20191;-81
2022/08/17 11:33:34;;;;;;;20.40;18.77;;;26.80;99.90;;;;;;5052031;28;20187;-80
2022/08/17 11:36:23;;;;;;;19.83;18.50;;;27.30;98.50;;;;;;5054538;28;20242;-81
2022/08/17 11:39:13;;;;;;;9.55;8.90;;;27.90;97.70;;;;;;5055769;28;20175;-81
2022/08/17 11:42:18;;;;;;;9.10;6.43;;;28.10;95.90;;;;;;5055729;28;20242;-80
2022/08/17 11:45:06;;;;;;;6.43;5.78;;;28.00;95.20;;;;;;5051813;28;20183;-81
2022/08/17 11:53:38;;;;;;;6.93;6.13;;;27.00;95.80;;;;;;5047478;28;20182;-81
2022/08/17 11:56:06;;;;;;;8.00;7.38;;;26.80;96.20;;;;;;5047008;28;20574;-81
2022/08/17 11:58:36;;;;;;;9.23;8.68;;;26.60;96.90;;;;;;5047898;28;20636;-81
2022/08/17 12:01:25;;;;;;;6.82;6.32;;;26.50;96.30;;;;;;5045200;28;20215;-79
2022/08/17 12:04:17;;;;;;;6.35;5.88;;;26.50;94.30;;;;;;5046714;28;20282;-81
2022/08/17 12:06:53;;;;;;;6.82;6.25;;;26.40;94.00;;;;;;5051887;28;20230;-81
2022/08/17 12:09:37;;;;;;;7.20;6.57;;;26.60;94.80;;;;;;5051262;28;20186;-81
2022/08/17 12:12:08;;;;;;;5.97;5.57;;;26.70;94.70;;;;;;5046834;28;20183;-80
2022/08/17 12:14:35;;;;;;;5.63;5.20;;;26.90;94.10;;;;;;5050616;28;20179;-80
2022/08/17 12:17:05;;;;;;;7.53;7.13;;;27.10;93.10;;;;;;5047484;28;20222;-80
2022/08/17 12:19:33;;;;;;;8.38;7.88;;;28.20;91.90;;;;;;5046266;28;20214;-81
2022/08/17 12:22:24;;;;;;;12.43;11.43;;;29.40;90.20;;;;;;5047793;28;20191;-80
2022/08/17 12:25:04;;;;;;;16.92;16.02;;;30.00;87.80;;;;;;5045636;28;20183;-81
2022/08/17 12:27:32;;;;;;;19.85;18.70;;;29.60;86.00;;;;;;5044315;28;20233;-81
2022/08/17 12:30:02;;;;;;;29.67;28.17;;;30.10;84.70;;;;;;5056779;28;20250;-81
2022/08/17 12:32:32;;;;;;;8.98;8.30;;;31.70;83.20;;;;;;5050171;28;20190;-81
2022/08/17 12:34:59;;;;;;;8.57;8.07;;;32.20;77.60;;;;;;5056023;28;20183;-80
2022/08/17 12:37:30;;;;;;;8.50;7.90;;;31.40;78.70;;;;;;5055292;28;20195;-82
2022/08/17 12:40:04;;;;;;;9.40;8.88;;;31.20;79.40;;;;;;5048835;28;20218;-82
2022/08/17 12:42:38;;;;;;;9.90;9.20;;;31.80;77.40;;;;;;5046604;28;20217;-82
2022/08/17 12:45:20;;;;;;;37.35;35.30;;;32.70;75.40;;;;;;5045531;28;20190;-82
2022/08/17 12:47:47;;;;;;;39.35;37.38;;;32.70;69.10;;;;;;5043937;28;20567;-82
2022/08/17 12:50:14;;;;;;;44.20;41.85;;;32.70;69.20;;;;;;5045564;28;20578;-82
2022/08/17 12:52:42;;;;;;;39.30;37.28;;;32.80;69.40;;;;;;5043520;28;20186;-82
2022/08/17 12:55:20;;;;;;;33.97;32.10;;;33.00;67.30;;;;;;5040628;28;20198;-82
2022/08/17 12:57:50;;;;;;;32.10;30.40;;;33.10;66.80;;;;;;5039669;28;20751;-82
2022/08/17 13:00:33;;;;;;;34.00;32.20;;;32.20;68.50;;;;;;5041694;28;20209;-82
2022/08/17 13:02:59;;;;;;;29.45;27.85;;;32.00;68.10;;;;;;5040168;28;20182;-82
2022/08/17 13:05:27;;;;;;;32.58;30.95;;;32.50;67.70;;;;;;5042374;28;20167;-82
2022/08/17 13:07:56;;;;;;;32.53;30.63;;;32.40;66.80;;;;;;5041786;28;20186;-82
2022/08/17 13:10:24;;;;;;;22.33;21.23;;;32.10;68.80;;;;;;5042178;28;20182;-82
2022/08/17 13:12:51;;;;;;;27.25;25.73;;;32.60;65.70;;;;;;5046607;28;20186;-82
2022/08/17 13:15:29;;;;;;;147.43;140.23;;;34.20;62.30;;;;;;5054155;28;20163;-81
2022/08/17 13:18:06;;;;;;;301.40;286.20;;;35.70;59.00;;;;;;5053848;28;20191;-80
2022/08/17 13:20:33;;;;;;;330.63;313.65;;;36.10;56.40;;;;;;5054698;28;20226;-80
2022/08/17 13:23:02;;;;;;;335.58;318.23;;;36.20;56.20;;;;;;5047440;28;20183;-80
2022/08/17 13:25:29;;;;;;;329.27;312.48;;;36.30;55.70;;;;;;5047896;28;20182;-81
2022/08/17 13:27:55;;;;;;;306.67;291.52;;;35.90;54.30;;;;;;5046510;28;20195;-82
2022/08/17 13:30:31;;;;;;;333.52;316.67;;;35.80;53.40;;;;;;5044726;28;20202;-81
2022/08/17 13:32:57;;;;;;;349.65;331.60;;;35.50;54.40;;;;;;5050818;28;20205;-81
2022/08/17 13:35:44;;;;;;;329.35;312.30;;;35.40;54.30;;;;;;5049906;28;20174;-81
2022/08/17 13:38:32;;;;;;;269.10;256.05;;;35.50;53.00;;;;;;5046135;28;20187;-81